sensor_id;sensor_type;location;lat;lon;timestamp;pressure;altitude;pressure_sealevel;temperature;humidity
58991;BME280;44781;53.444;14.476;2023-03-13T01:43:53;100369.23;;;5.82;81.16
58991;BME280;44781;53.444;14.476;2023-03-13T01:46:31;100352.23;;;5.90;81.31
58991;BME280;44781;53.444;14.476;2023-03-13T01:49:30;100347.86;;;5.99;81.27
58991;BME280;44781;53.444;14.476;2023-03-13T01:52:28;100345.09;;;6.04;81.09
58991;BME280;44781;53.444;14.476;2023-03-13T01:55:21;100342.01;;;6.09;80.93
58991;BME280;44781;53.444;14.476;2023-03-13T02:46:35;100306.16;;;7.03;78.11
58991;BME280;44781;53.444;14.476;2023-03-13T03:01:37;100296.36;;;6.74;78.55
58991;BME280;44781;53.444;14.476;2023-03-13T03:04:44;100295.73;;;6.72;78.68
58991;BME280;44781;53.444;14.476;2023-03-13T05:35:50;100073.83;;;7.22;80.30
58991;BME280;44781;53.444;14.476;2023-03-13T05:42:20;100062.69;;;7.27;80.45
58991;BME280;44781;53.444;14.476;2023-03-13T06:12:09;99985.65;;;7.47;80.74
58991;BME280;44781;53.444;14.476;2023-03-13T06:19:13;99971.15;;;7.56;81.11
58991;BME280;44781;53.444;14.476;2023-03-13T06:25:34;99964.64;;;7.61;81.30
58991;BME280;44781;53.444;14.476;2023-03-13T06:31:31;99954.64;;;7.62;81.19
58991;BME280;44781;53.444;14.476;2023-03-13T06:37:53;99949.16;;;7.72;81.63
58991;BME280;44781;53.444;14.476;2023-03-13T07:11:22;99893.58;;;8.04;81.83
58991;BME280;44781;53.444;14.476;2023-03-13T07:14:05;99895.95;;;8.09;81.76
58991;BME280;44781;53.444;14.476;2023-03-13T07:17:27;99885.70;;;8.12;81.82
58991;BME280;44781;53.444;14.476;2023-03-13T07:25:25;99873.79;;;8.20;81.99
58991;BME280;44781;53.444;14.476;2023-03-13T07:33:52;99860.84;;;8.24;82.11
58991;BME280;44781;53.444;14.476;2023-03-13T08:02:39;99805.14;;;8.58;82.86
58991;BME280;44781;53.444;14.476;2023-03-13T08:05:14;99801.13;;;8.62;82.83
58991;BME280;44781;53.444;14.476;2023-03-13T08:15:17;99783.52;;;8.76;82.85
58991;BME280;44781;53.444;14.476;2023-03-13T08:18:08;99779.81;;;8.79;82.82
58991;BME280;44781;53.444;14.476;2023-03-13T08:23:33;99770.98;;;8.85;82.78
58991;BME280;44781;53.444;14.476;2023-03-13T08:28:52;99762.48;;;8.90;82.86
58991;BME280;44781;53.444;14.476;2023-03-13T08:31:31;99755.63;;;8.94;82.85
58991;BME280;44781;53.444;14.476;2023-03-13T08:38:33;99744.91;;;9.04;83.11
58991;BME280;44781;53.444;14.476;2023-03-13T08:42:00;99737.03;;;9.05;83.02
58991;BME280;44781;53.444;14.476;2023-03-13T08:44:55;99723.93;;;9.00;82.86
58991;BME280;44781;53.444;14.476;2023-03-13T09:16:17;99642.42;;;9.32;82.82
58991;BME280;44781;53.444;14.476;2023-03-13T09:19:01;99638.80;;;9.35;82.64
58991;BME280;44781;53.444;14.476;2023-03-13T09:22:08;99632.23;;;9.37;82.58
58991;BME280;44781;53.444;14.476;2023-03-13T09:24:39;99630.98;;;9.37;82.62
58991;BME280;44781;53.444;14.476;2023-03-13T09:27:43;99624.39;;;9.38;82.50
58991;BME280;44781;53.444;14.476;2023-03-13T09:30:34;99628.48;;;9.42;82.62
58991;BME280;44781;53.444;14.476;2023-03-13T09:33:09;99626.92;;;9.45;82.60
58991;BME280;44781;53.444;14.476;2023-03-13T09:35:48;99619.95;;;9.48;82.56
58991;BME280;44781;53.444;14.476;2023-03-13T09:38:47;99621.16;;;9.51;82.56
58991;BME280;44781;53.444;14.476;2023-03-13T09:46:45;99596.21;;;9.52;82.49
58991;BME280;44781;53.444;14.476;2023-03-13T09:52:17;99586.27;;;9.55;82.80
58991;BME280;44781;53.444;14.476;2023-03-13T09:55:09;99583.50;;;9.56;83.10
58991;BME280;44781;53.444;14.476;2023-03-13T09:58:14;99574.40;;;9.57;83.13
58991;BME280;44781;53.444;14.476;2023-03-13T10:01:22;99572.67;;;9.59;83.28
58991;BME280;44781;53.444;14.476;2023-03-13T10:04:52;99571.58;;;9.61;83.53
58991;BME280;44781;53.444;14.476;2023-03-13T10:07:28;99568.59;;;9.65;83.72
58991;BME280;44781;53.444;14.476;2023-03-13T10:16:48;99568.59;;;9.76;84.15
58991;BME280;44781;53.444;14.476;2023-03-13T10:20:00;99565.64;;;9.78;84.23
58991;BME280;44781;53.444;14.476;2023-03-13T10:26:55;99554.98;;;9.84;84.35
58991;BME280;44781;53.444;14.476;2023-03-13T10:33:25;99554.09;;;9.94;84.79
58991;BME280;44781;53.444;14.476;2023-03-13T10:36:25;99552.00;;;9.96;84.76
58991;BME280;44781;53.444;14.476;2023-03-13T10:39:15;99543.08;;;9.99;84.96
58991;BME280;44781;53.444;14.476;2023-03-13T10:42:10;99536.88;;;10.03;85.05
58991;BME280;44781;53.444;14.476;2023-03-13T10:45:03;99533.15;;;10.07;85.08
58991;BME280;44781;53.444;14.476;2023-03-13T10:47:41;99534.88;;;10.09;85.31
58991;BME280;44781;53.444;14.476;2023-03-13T13:24:57;99377.19;;;12.48;86.21
58991;BME280;44781;53.444;14.476;2023-03-13T13:31:55;99380.79;;;12.65;86.19
58991;BME280;44781;53.444;14.476;2023-03-13T13:38:37;99376.57;;;12.94;86.48
58991;BME280;44781;53.444;14.476;2023-03-13T15:11:15;99305.30;;;17.61;68.47
58991;BME280;44781;53.444;14.476;2023-03-13T15:13:44;99297.73;;;17.78;67.40
58991;BME280;44781;53.444;14.476;2023-03-13T15:16:24;99300.95;;;17.92;66.90
58991;BME280;44781;53.444;14.476;2023-03-13T15:20:01;99299.39;;;18.07;65.79
58991;BME280;44781;53.444;14.476;2023-03-13T15:22:36;99297.02;;;18.16;65.09
58991;BME280;44781;53.444;14.476;2023-03-13T15:25:22;99293.95;;;18.20;64.39
58991;BME280;44781;53.444;14.476;2023-03-13T15:27:52;99290.53;;;18.22;64.09
58991;BME280;44781;53.444;14.476;2023-03-13T15:30:25;99295.73;;;18.21;63.40
58991;BME280;44781;53.444;14.476;2023-03-13T15:33:04;99299.02;;;18.19;62.68
58991;BME280;44781;53.444;14.476;2023-03-13T15:35:32;99295.70;;;18.15;62.60
58991;BME280;44781;53.444;14.476;2023-03-13T15:38:00;99290.70;;;18.08;62.11
58991;BME280;44781;53.444;14.476;2023-03-13T15:40:28;99292.28;;;18.00;61.84
58991;BME280;44781;53.444;14.476;2023-03-13T15:43:00;99289.60;;;17.89;61.41
58991;BME280;44781;53.444;14.476;2023-03-13T15:45:28;99289.57;;;17.79;61.53
58991;BME280;44781;53.444;14.476;2023-03-13T15:47:59;99284.23;;;17.69;61.66
58991;BME280;44781;53.444;14.476;2023-03-13T15:50:27;99284.66;;;17.60;61.73
58991;BME280;44781;53.444;14.476;2023-03-13T15:52:58;99281.52;;;17.51;61.73
58991;BME280;44781;53.444;14.476;2023-03-13T15:55:27;99277.73;;;17.45;61.65
58991;BME280;44781;53.444;14.476;2023-03-13T15:57:55;99277.04;;;17.39;61.84
58991;BME280;44781;53.444;14.476;2023-03-13T16:00:25;99273.99;;;17.35;61.95
58991;BME280;44781;53.444;14.476;2023-03-13T16:02:55;99272.36;;;17.31;61.90
58991;BME280;44781;53.444;14.476;2023-03-13T16:05:23;99266.21;;;17.27;62.03
58991;BME280;44781;53.444;14.476;2023-03-13T16:07:51;99260.31;;;17.25;62.31
58991;BME280;44781;53.444;14.476;2023-03-13T16:10:27;99253.46;;;17.22;62.21
58991;BME280;44781;53.444;14.476;2023-03-13T16:12:58;99254.36;;;17.21;62.37
58991;BME280;44781;53.444;14.476;2023-03-13T16:15:25;99256.27;;;17.19;62.42
58991;BME280;44781;53.444;14.476;2023-03-13T16:20:48;99259.45;;;17.12;62.42
58991;BME280;44781;53.444;14.476;2023-03-13T16:23:39;99252.27;;;17.09;62.38
58991;BME280;44781;53.444;14.476;2023-03-13T16:26:29;99248.44;;;17.09;62.53
58991;BME280;44781;53.444;14.476;2023-03-13T16:29:05;99241.52;;;17.08;62.64
58991;BME280;44781;53.444;14.476;2023-03-13T16:31:33;99241.63;;;17.09;62.24
58991;BME280;44781;53.444;14.476;2023-03-13T16:34:01;99252.45;;;17.07;62.27
58991;BME280;44781;53.444;14.476;2023-03-13T16:37:21;99254.92;;;17.01;62.10
58991;BME280;44781;53.444;14.476;2023-03-13T16:39:59;99246.72;;;16.93;61.97
58991;BME280;44781;53.444;14.476;2023-03-13T16:42:30;99242.83;;;16.85;61.89
58991;BME280;44781;53.444;14.476;2023-03-13T16:44:58;99241.60;;;16.78;62.13
58991;BME280;44781;53.444;14.476;2023-03-13T16:47:27;99236.21;;;16.70;62.05
58991;BME280;44781;53.444;14.476;2023-03-13T16:50:28;99230.67;;;16.61;61.83
58991;BME280;44781;53.444;14.476;2023-03-13T16:53:15;99233.30;;;16.50;61.93
58991;BME280;44781;53.444;14.476;2023-03-13T16:55:52;99228.84;;;16.40;62.14
58991;BME280;44781;53.444;14.476;2023-03-13T16:58:22;99223.59;;;16.31;62.02
58991;BME280;44781;53.444;14.476;2023-03-13T17:00:50;99221.92;;;16.21;62.16
58991;BME280;44781;53.444;14.476;2023-03-13T17:03:17;99219.61;;;16.13;62.26
58991;BME280;44781;53.444;14.476;2023-03-13T17:05:45;99213.56;;;16.04;62.37
58991;BME280;44781;53.444;14.476;2023-03-13T17:08:13;99209.66;;;15.97;62.50
58991;BME280;44781;53.444;14.476;2023-03-13T17:10:41;99206.84;;;15.89;62.71
58991;BME280;44781;53.444;14.476;2023-03-13T17:13:09;99205.77;;;15.82;62.75
58991;BME280;44781;53.444;14.476;2023-03-13T17:15:36;99205.46;;;15.74;63.08
58991;BME280;44781;53.444;14.476;2023-03-13T17:18:04;99205.15;;;15.66;63.03
58991;BME280;44781;53.444;14.476;2023-03-13T17:20:35;99200.48;;;15.59;63.00
58991;BME280;44781;53.444;14.476;2023-03-13T17:23:03;99194.96;;;15.52;63.21
58991;BME280;44781;53.444;14.476;2023-03-13T17:25:31;99194.70;;;15.45;63.45
58991;BME280;44781;53.444;14.476;2023-03-13T17:28:00;99190.48;;;15.39;63.36
58991;BME280;44781;53.444;14.476;2023-03-13T17:30:30;99186.29;;;15.32;63.49
58991;BME280;44781;53.444;14.476;2023-03-13T17:32:57;99178.56;;;15.23;63.54
58991;BME280;44781;53.444;14.476;2023-03-13T17:35:30;99186.77;;;15.19;63.87
58991;BME280;44781;53.444;14.476;2023-03-13T17:37:58;99181.09;;;15.15;63.85
58991;BME280;44781;53.444;14.476;2023-03-13T17:40:28;99180.69;;;15.12;63.95
58991;BME280;44781;53.444;14.476;2023-03-13T17:43:02;99178.36;;;15.10;64.12
58991;BME280;44781;53.444;14.476;2023-03-13T17:45:31;99186.76;;;15.09;64.10
58991;BME280;44781;53.444;14.476;2023-03-13T17:48:07;99181.95;;;15.06;64.42
58991;BME280;44781;53.444;14.476;2023-03-13T17:50:53;99182.94;;;15.03;64.44
58991;BME280;44781;53.444;14.476;2023-03-13T17:53:21;99188.73;;;14.98;64.55
58991;BME280;44781;53.444;14.476;2023-03-13T17:55:51;99187.84;;;14.92;64.66
58991;BME280;44781;53.444;14.476;2023-03-13T17:58:19;99192.63;;;14.87;64.86
58991;BME280;44781;53.444;14.476;2023-03-13T18:00:46;99197.50;;;14.80;64.92
58991;BME280;44781;53.444;14.476;2023-03-13T18:03:17;99197.17;;;14.74;65.21
58991;BME280;44781;53.444;14.476;2023-03-13T18:05:50;99198.65;;;14.67;65.34
58991;BME280;44781;53.444;14.476;2023-03-13T18:08:20;99194.23;;;14.59;65.50
58991;BME280;44781;53.444;14.476;2023-03-13T18:10:47;99197.86;;;14.52;65.81
58991;BME280;44781;53.444;14.476;2023-03-13T18:13:15;99197.98;;;14.45;66.11
58991;BME280;44781;53.444;14.476;2023-03-13T18:15:42;99192.02;;;14.39;66.29
58991;BME280;44781;53.444;14.476;2023-03-13T18:18:16;99190.41;;;14.34;66.58
58991;BME280;44781;53.444;14.476;2023-03-13T18:20:43;99196.70;;;14.31;66.54
58991;BME280;44781;53.444;14.476;2023-03-13T18:23:13;99197.90;;;14.28;66.75
58991;BME280;44781;53.444;14.476;2023-03-13T18:25:41;99194.59;;;14.26;67.14
58991;BME280;44781;53.444;14.476;2023-03-13T18:28:10;99189.30;;;14.24;67.33
58991;BME280;44781;53.444;14.476;2023-03-13T18:30:42;99184.05;;;14.22;67.55
58991;BME280;44781;53.444;14.476;2023-03-13T18:33:17;99175.39;;;14.18;67.66
58991;BME280;44781;53.444;14.476;2023-03-13T18:35:50;99172.77;;;14.13;67.93
58991;BME280;44781;53.444;14.476;2023-03-13T18:38:23;99174.56;;;14.08;68.11
58991;BME280;44781;53.444;14.476;2023-03-13T18:41:01;99173.91;;;14.04;68.24
58991;BME280;44781;53.444;14.476;2023-03-13T18:43:34;99168.36;;;13.98;68.59
58991;BME280;44781;53.444;14.476;2023-03-13T18:46:02;99169.25;;;13.93;68.61
58991;BME280;44781;53.444;14.476;2023-03-13T18:48:33;99177.05;;;13.90;68.84
58991;BME280;44781;53.444;14.476;2023-03-13T18:51:00;99176.33;;;13.89;69.12
58991;BME280;44781;53.444;14.476;2023-03-13T18:53:31;99175.08;;;13.89;69.40
58991;BME280;44781;53.444;14.476;2023-03-13T18:56:03;99163.19;;;13.89;69.55
58991;BME280;44781;53.444;14.476;2023-03-13T18:58:33;99161.10;;;13.88;69.59
58991;BME280;44781;53.444;14.476;2023-03-13T19:01:00;99168.56;;;13.88;69.68
58991;BME280;44781;53.444;14.476;2023-03-13T19:03:28;99167.16;;;13.87;69.63
58991;BME280;44781;53.444;14.476;2023-03-13T19:05:58;99172.84;;;13.83;69.87
58991;BME280;44781;53.444;14.476;2023-03-13T19:08:29;99165.09;;;13.80;69.65
58991;BME280;44781;53.444;14.476;2023-03-13T19:10:59;99165.61;;;13.75;69.81
58991;BME280;44781;53.444;14.476;2023-03-13T19:13:29;99156.79;;;13.70;69.88
58991;BME280;44781;53.444;14.476;2023-03-13T19:18:50;99152.02;;;13.65;70.25
58991;BME280;44781;53.444;14.476;2023-03-13T19:21:25;99151.86;;;13.65;70.34
58991;BME280;44781;53.444;14.476;2023-03-13T19:23:57;99150.76;;;13.66;70.57
58991;BME280;44781;53.444;14.476;2023-03-13T19:26:37;99149.30;;;13.64;70.71
58991;BME280;44781;53.444;14.476;2023-03-13T19:29:13;99151.77;;;13.63;70.81
58991;BME280;44781;53.444;14.476;2023-03-13T19:31:41;99153.11;;;13.60;70.93
58991;BME280;44781;53.444;14.476;2023-03-13T19:34:10;99149.64;;;13.58;70.91
58991;BME280;44781;53.444;14.476;2023-03-13T19:36:40;99147.13;;;13.55;71.06
58991;BME280;44781;53.444;14.476;2023-03-13T19:39:39;99142.05;;;13.52;70.89
58991;BME280;44781;53.444;14.476;2023-03-13T19:42:28;99144.33;;;13.49;71.04
58991;BME280;44781;53.444;14.476;2023-03-13T19:45:07;99139.72;;;13.49;71.15
58991;BME280;44781;53.444;14.476;2023-03-13T19:47:41;99138.14;;;13.50;71.40
58991;BME280;44781;53.444;14.476;2023-03-13T19:50:22;99143.65;;;13.51;71.40
58991;BME280;44781;53.444;14.476;2023-03-13T19:52:50;99138.98;;;13.52;71.54
58991;BME280;44781;53.444;14.476;2023-03-13T19:55:21;99137.88;;;13.52;71.51
58991;BME280;44781;53.444;14.476;2023-03-13T19:57:53;99137.90;;;13.52;71.52
58991;BME280;44781;53.444;14.476;2023-03-13T20:00:52;99134.85;;;13.49;71.45
58991;BME280;44781;53.444;14.476;2023-03-13T20:03:19;99133.05;;;13.43;71.52
58991;BME280;44781;53.444;14.476;2023-03-13T20:05:48;99140.98;;;13.44;71.55
58991;BME280;44781;53.444;14.476;2023-03-13T20:08:17;99144.84;;;13.41;71.60
58991;BME280;44781;53.444;14.476;2023-03-13T20:10:44;99147.84;;;13.39;71.76
58991;BME280;44781;53.444;14.476;2023-03-13T20:13:12;99142.72;;;13.39;71.56
58991;BME280;44781;53.444;14.476;2023-03-13T20:15:42;99140.71;;;13.40;71.79
58991;BME280;44781;53.444;14.476;2023-03-13T20:18:11;99140.61;;;13.41;71.80
58991;BME280;44781;53.444;14.476;2023-03-13T20:20:39;99142.71;;;13.41;71.89
58991;BME280;44781;53.444;14.476;2023-03-13T20:23:10;99137.89;;;13.41;71.85
58991;BME280;44781;53.444;14.476;2023-03-13T20:25:40;99135.10;;;13.39;71.89
58991;BME280;44781;53.444;14.476;2023-03-13T20:28:14;99128.02;;;13.37;72.00
58991;BME280;44781;53.444;14.476;2023-03-13T20:30:44;99133.48;;;13.35;72.11
58991;BME280;44781;53.444;14.476;2023-03-13T20:33:17;99133.45;;;13.32;72.14
58991;BME280;44781;53.444;14.476;2023-03-13T20:35:47;99135.80;;;13.28;72.16
58991;BME280;44781;53.444;14.476;2023-03-13T20:38:25;99144.12;;;13.27;72.16
58991;BME280;44781;53.444;14.476;2023-03-13T20:41:08;99144.78;;;13.27;72.29
58991;BME280;44781;53.444;14.476;2023-03-13T20:47:37;99147.05;;;13.29;72.60
58991;BME280;44781;53.444;14.476;2023-03-13T20:51:02;99150.73;;;13.29;72.74
58991;BME280;44781;53.444;14.476;2023-03-13T20:54:12;99139.59;;;13.29;72.81
58991;BME280;44781;53.444;14.476;2023-03-13T20:56:56;99123.33;;;13.27;72.82
58991;BME280;44781;53.444;14.476;2023-03-13T20:59:29;99117.50;;;13.24;72.89
58991;BME280;44781;53.444;14.476;2023-03-13T21:02:00;99113.80;;;13.20;73.08
58991;BME280;44781;53.444;14.476;2023-03-13T21:04:36;99115.16;;;13.19;73.18
58991;BME280;44781;53.444;14.476;2023-03-13T21:07:03;99113.55;;;13.21;73.14
58991;BME280;44781;53.444;14.476;2023-03-13T21:09:52;99111.92;;;13.23;73.25
58991;BME280;44781;53.444;14.476;2023-03-13T21:12:25;99111.77;;;13.26;73.42
58991;BME280;44781;53.444;14.476;2023-03-13T21:14:55;99100.36;;;13.28;73.35
58991;BME280;44781;53.444;14.476;2023-03-13T21:17:49;99092.75;;;13.30;73.36
58991;BME280;44781;53.444;14.476;2023-03-13T21:21:33;99091.19;;;13.29;73.11
58991;BME280;44781;53.444;14.476;2023-03-13T21:24:46;99087.01;;;13.25;73.16
58991;BME280;44781;53.444;14.476;2023-03-13T21:27:15;99097.71;;;13.23;73.29
58991;BME280;44781;53.444;14.476;2023-03-13T21:29:42;99100.28;;;13.21;73.21
58991;BME280;44781;53.444;14.476;2023-03-13T21:32:13;99105.75;;;13.19;73.29
58991;BME280;44781;53.444;14.476;2023-03-13T21:34:41;99101.95;;;13.20;73.32
58991;BME280;44781;53.444;14.476;2023-03-13T21:37:33;99103.55;;;13.21;73.31
58991;BME280;44781;53.444;14.476;2023-03-13T21:41:14;99096.09;;;13.23;73.31
58991;BME280;44781;53.444;14.476;2023-03-13T21:56:05;99105.78;;;13.13;73.33
58991;BME280;44781;53.444;14.476;2023-03-13T22:02:53;99103.59;;;13.14;73.79
58991;BME280;44781;53.444;14.476;2023-03-13T22:21:51;99117.60;;;13.65;73.00
58991;BME280;44781;53.444;14.476;2023-03-13T22:25:06;99108.98;;;13.83;72.45
58991;BME280;44781;53.444;14.476;2023-03-13T22:28:02;99099.45;;;13.75;72.62
58991;BME280;44781;53.444;14.476;2023-03-13T22:30:39;99099.05;;;13.69;72.64
58991;BME280;44781;53.444;14.476;2023-03-13T22:33:08;99102.44;;;13.63;72.65
58991;BME280;44781;53.444;14.476;2023-03-13T22:36:10;99098.91;;;13.58;72.65
58991;BME280;44781;53.444;14.476;2023-03-13T22:43:08;99086.17;;;13.51;72.90
58991;BME280;44781;53.444;14.476;2023-03-13T22:46:15;99077.27;;;13.49;72.95
58991;BME280;44781;53.444;14.476;2023-03-13T22:52:39;99076.40;;;13.41;73.16
58991;BME280;44781;53.444;14.476;2023-03-13T22:55:22;99074.13;;;13.37;73.29
58991;BME280;44781;53.444;14.476;2023-03-13T22:58:16;99073.59;;;13.33;73.14
58991;BME280;44781;53.444;14.476;2023-03-13T23:05:14;99070.69;;;13.25;73.25
